sensor_id;sensor_type;location;lat;lon;timestamp;P1;durP1;ratioP1;P2;durP2;ratioP2
77522;SDS011;66637;-29.628;-49.938;2023-07-31T00:02:17;15.05;;;4.95;;
77522;SDS011;66637;-29.628;-49.938;2023-07-31T00:04:48;14.70;;;5.35;;
77522;SDS011;66637;-29.628;-49.938;2023-07-31T00:07:19;14.88;;;6.30;;
77522;SDS011;66637;-29.628;-49.938;2023-07-31T00:09:49;11.98;;;5.70;;
77522;SDS011;66637;-29.628;-49.938;2023-07-31T00:12:21;13.35;;;5.80;;
77522;SDS011;66637;-29.628;-49.938;2023-07-31T00:14:52;10.45;;;5.55;;
77522;SDS011;66637;-29.628;-49.938;2023-07-31T00:17:22;10.38;;;5.07;;
77522;SDS011;66637;-29.628;-49.938;2023-07-31T00:19:54;7.95;;;4.78;;
77522;SDS011;66637;-29.628;-49.938;2023-07-31T00:22:25;10.50;;;5.20;;
77522;SDS011;66637;-29.628;-49.938;2023-07-31T00:24:56;10.45;;;5.00;;
77522;SDS011;66637;-29.628;-49.938;2023-07-31T00:27:28;8.30;;;5.35;;
77522;SDS011;66637;-29.628;-49.938;2023-07-31T00:30:00;8.13;;;5.28;;
77522;SDS011;66637;-29.628;-49.938;2023-07-31T00:32:32;7.22;;;4.63;;
77522;SDS011;66637;-29.628;-49.938;2023-07-31T00:35:03;8.25;;;4.88;;
77522;SDS011;66637;-29.628;-49.938;2023-07-31T00:37:34;7.25;;;4.88;;
77522;SDS011;66637;-29.628;-49.938;2023-07-31T00:40:06;7.80;;;5.15;;
77522;SDS011;66637;-29.628;-49.938;2023-07-31T00:42:37;8.73;;;4.65;;
77522;SDS011;66637;-29.628;-49.938;2023-07-31T00:45:08;8.63;;;4.30;;
77522;SDS011;66637;-29.628;-49.938;2023-07-31T00:47:39;8.48;;;4.90;;
77522;SDS011;66637;-29.628;-49.938;2023-07-31T00:50:11;9.43;;;4.50;;
77522;SDS011;66637;-29.628;-49.938;2023-07-31T00:52:42;6.68;;;4.82;;
77522;SDS011;66637;-29.628;-49.938;2023-07-31T00:55:13;9.70;;;4.43;;
77522;SDS011;66637;-29.628;-49.938;2023-07-31T00:57:45;7.63;;;4.53;;
77522;SDS011;66637;-29.628;-49.938;2023-07-31T01:00:18;8.48;;;5.15;;
77522;SDS011;66637;-29.628;-49.938;2023-07-31T01:02:50;6.45;;;4.78;;
77522;SDS011;66637;-29.628;-49.938;2023-07-31T01:05:25;8.90;;;5.07;;
77522;SDS011;66637;-29.628;-49.938;2023-07-31T01:08:15;8.35;;;4.57;;
77522;SDS011;66637;-29.628;-49.938;2023-07-31T01:11:01;9.38;;;4.10;;
77522;SDS011;66637;-29.628;-49.938;2023-07-31T01:13:53;6.65;;;4.63;;
77522;SDS011;66637;-29.628;-49.938;2023-07-31T01:16:25;8.73;;;4.90;;
77522;SDS011;66637;-29.628;-49.938;2023-07-31T01:18:56;6.65;;;4.78;;
77522;SDS011;66637;-29.628;-49.938;2023-07-31T01:27:12;10.02;;;6.20;;
77522;SDS011;66637;-29.628;-49.938;2023-07-31T01:32:44;8.93;;;6.70;;
77522;SDS011;66637;-29.628;-49.938;2023-07-31T01:35:18;10.05;;;5.60;;
77522;SDS011;66637;-29.628;-49.938;2023-07-31T02:14:19;9.38;;;5.88;;
77522;SDS011;66637;-29.628;-49.938;2023-07-31T02:17:05;7.25;;;4.85;;
77522;SDS011;66637;-29.628;-49.938;2023-07-31T02:19:36;7.28;;;4.78;;
77522;SDS011;66637;-29.628;-49.938;2023-07-31T02:22:07;11.63;;;5.07;;
77522;SDS011;66637;-29.628;-49.938;2023-07-31T02:24:39;8.55;;;4.50;;
77522;SDS011;66637;-29.628;-49.938;2023-07-31T02:27:12;7.63;;;4.05;;
77522;SDS011;66637;-29.628;-49.938;2023-07-31T02:29:43;7.57;;;4.38;;
77522;SDS011;66637;-29.628;-49.938;2023-07-31T02:32:13;6.75;;;3.78;;
77522;SDS011;66637;-29.628;-49.938;2023-07-31T02:34:45;7.55;;;3.78;;
77522;SDS011;66637;-29.628;-49.938;2023-07-31T02:37:16;5.55;;;3.53;;
77522;SDS011;66637;-29.628;-49.938;2023-07-31T02:39:47;6.20;;;4.30;;
77522;SDS011;66637;-29.628;-49.938;2023-07-31T02:42:18;6.65;;;4.00;;
77522;SDS011;66637;-29.628;-49.938;2023-07-31T02:44:48;9.43;;;4.47;;
77522;SDS011;66637;-29.628;-49.938;2023-07-31T02:47:21;8.60;;;4.88;;
77522;SDS011;66637;-29.628;-49.938;2023-07-31T02:49:52;6.53;;;4.50;;
77522;SDS011;66637;-29.628;-49.938;2023-07-31T02:52:24;7.03;;;4.13;;
77522;SDS011;66637;-29.628;-49.938;2023-07-31T02:54:55;8.68;;;4.18;;
77522;SDS011;66637;-29.628;-49.938;2023-07-31T02:57:26;8.93;;;4.80;;
77522;SDS011;66637;-29.628;-49.938;2023-07-31T02:59:57;7.85;;;4.38;;
77522;SDS011;66637;-29.628;-49.938;2023-07-31T03:02:28;10.90;;;4.15;;
77522;SDS011;66637;-29.628;-49.938;2023-07-31T03:04:59;7.93;;;4.18;;
77522;SDS011;66637;-29.628;-49.938;2023-07-31T03:07:29;7.05;;;3.83;;
77522;SDS011;66637;-29.628;-49.938;2023-07-31T03:10:00;13.35;;;4.13;;
77522;SDS011;66637;-29.628;-49.938;2023-07-31T03:12:30;10.52;;;3.90;;
77522;SDS011;66637;-29.628;-49.938;2023-07-31T03:15:01;7.75;;;3.95;;
77522;SDS011;66637;-29.628;-49.938;2023-07-31T03:17:32;6.97;;;4.10;;
77522;SDS011;66637;-29.628;-49.938;2023-07-31T03:20:03;8.35;;;4.00;;
77522;SDS011;66637;-29.628;-49.938;2023-07-31T03:22:34;7.65;;;3.97;;
77522;SDS011;66637;-29.628;-49.938;2023-07-31T03:25:05;7.93;;;3.70;;
77522;SDS011;66637;-29.628;-49.938;2023-07-31T03:27:37;10.50;;;4.13;;
77522;SDS011;66637;-29.628;-49.938;2023-07-31T03:30:07;7.15;;;4.07;;
77522;SDS011;66637;-29.628;-49.938;2023-07-31T03:32:38;7.20;;;4.30;;
77522;SDS011;66637;-29.628;-49.938;2023-07-31T03:35:13;9.77;;;4.03;;
77522;SDS011;66637;-29.628;-49.938;2023-07-31T03:37:43;7.95;;;4.50;;
77522;SDS011;66637;-29.628;-49.938;2023-07-31T03:40:14;9.23;;;4.40;;
77522;SDS011;66637;-29.628;-49.938;2023-07-31T03:42:46;10.20;;;4.63;;
77522;SDS011;66637;-29.628;-49.938;2023-07-31T03:45:17;6.25;;;3.97;;
77522;SDS011;66637;-29.628;-49.938;2023-07-31T03:47:47;8.05;;;4.40;;
77522;SDS011;66637;-29.628;-49.938;2023-07-31T03:50:20;9.35;;;4.45;;
77522;SDS011;66637;-29.628;-49.938;2023-07-31T03:52:50;5.88;;;3.95;;
77522;SDS011;66637;-29.628;-49.938;2023-07-31T03:55:21;6.40;;;3.72;;
77522;SDS011;66637;-29.628;-49.938;2023-07-31T03:57:52;7.35;;;4.25;;
77522;SDS011;66637;-29.628;-49.938;2023-07-31T04:00:23;6.80;;;3.70;;
77522;SDS011;66637;-29.628;-49.938;2023-07-31T04:02:57;11.63;;;4.60;;
77522;SDS011;66637;-29.628;-49.938;2023-07-31T04:05:32;7.22;;;3.90;;
77522;SDS011;66637;-29.628;-49.938;2023-07-31T04:08:03;9.43;;;4.30;;
77522;SDS011;66637;-29.628;-49.938;2023-07-31T04:10:35;8.43;;;4.43;;
77522;SDS011;66637;-29.628;-49.938;2023-07-31T04:13:05;9.15;;;4.88;;
77522;SDS011;66637;-29.628;-49.938;2023-07-31T04:15:37;8.80;;;4.65;;
77522;SDS011;66637;-29.628;-49.938;2023-07-31T04:18:09;9.45;;;4.20;;
77522;SDS011;66637;-29.628;-49.938;2023-07-31T04:20:39;7.65;;;4.10;;
77522;SDS011;66637;-29.628;-49.938;2023-07-31T04:23:09;8.48;;;4.50;;
77522;SDS011;66637;-29.628;-49.938;2023-07-31T04:25:41;7.63;;;4.25;;
77522;SDS011;66637;-29.628;-49.938;2023-07-31T04:28:14;8.20;;;4.55;;
77522;SDS011;66637;-29.628;-49.938;2023-07-31T04:30:45;7.70;;;4.57;;
77522;SDS011;66637;-29.628;-49.938;2023-07-31T04:33:23;7.50;;;5.03;;
77522;SDS011;66637;-29.628;-49.938;2023-07-31T04:35:54;10.15;;;5.30;;
77522;SDS011;66637;-29.628;-49.938;2023-07-31T04:38:26;7.38;;;4.97;;
77522;SDS011;66637;-29.628;-49.938;2023-07-31T04:40:57;10.32;;;4.88;;
77522;SDS011;66637;-29.628;-49.938;2023-07-31T04:43:28;8.20;;;4.85;;
77522;SDS011;66637;-29.628;-49.938;2023-07-31T04:45:59;9.98;;;5.00;;
77522;SDS011;66637;-29.628;-49.938;2023-07-31T04:48:29;7.35;;;4.82;;
77522;SDS011;66637;-29.628;-49.938;2023-07-31T04:51:00;7.43;;;4.60;;
77522;SDS011;66637;-29.628;-49.938;2023-07-31T04:53:31;6.97;;;4.25;;
77522;SDS011;66637;-29.628;-49.938;2023-07-31T04:56:02;9.02;;;4.10;;
77522;SDS011;66637;-29.628;-49.938;2023-07-31T04:58:34;8.68;;;4.38;;
77522;SDS011;66637;-29.628;-49.938;2023-07-31T05:01:06;6.90;;;4.93;;
77522;SDS011;66637;-29.628;-49.938;2023-07-31T05:03:37;9.38;;;4.65;;
77522;SDS011;66637;-29.628;-49.938;2023-07-31T05:06:08;7.47;;;4.50;;
77522;SDS011;66637;-29.628;-49.938;2023-07-31T05:08:39;13.52;;;5.25;;
77522;SDS011;66637;-29.628;-49.938;2023-07-31T05:11:10;10.20;;;4.85;;
77522;SDS011;66637;-29.628;-49.938;2023-07-31T05:13:42;11.90;;;5.05;;
77522;SDS011;66637;-29.628;-49.938;2023-07-31T05:16:13;8.55;;;5.85;;
77522;SDS011;66637;-29.628;-49.938;2023-07-31T05:18:43;7.82;;;4.90;;
77522;SDS011;66637;-29.628;-49.938;2023-07-31T05:21:14;9.73;;;4.60;;
77522;SDS011;66637;-29.628;-49.938;2023-07-31T05:23:45;6.85;;;4.38;;
77522;SDS011;66637;-29.628;-49.938;2023-07-31T05:26:17;9.32;;;4.18;;
77522;SDS011;66637;-29.628;-49.938;2023-07-31T05:28:48;10.75;;;4.72;;
77522;SDS011;66637;-29.628;-49.938;2023-07-31T05:31:19;6.05;;;3.65;;
77522;SDS011;66637;-29.628;-49.938;2023-07-31T05:33:52;7.40;;;4.05;;
77522;SDS011;66637;-29.628;-49.938;2023-07-31T05:36:23;8.55;;;4.40;;
77522;SDS011;66637;-29.628;-49.938;2023-07-31T05:38:53;6.47;;;4.07;;
77522;SDS011;66637;-29.628;-49.938;2023-07-31T05:41:23;5.32;;;3.88;;
77522;SDS011;66637;-29.628;-49.938;2023-07-31T05:43:55;5.38;;;3.78;;
77522;SDS011;66637;-29.628;-49.938;2023-07-31T05:46:25;7.00;;;4.15;;
77522;SDS011;66637;-29.628;-49.938;2023-07-31T05:48:57;6.07;;;4.10;;
77522;SDS011;66637;-29.628;-49.938;2023-07-31T05:51:30;6.78;;;4.38;;
77522;SDS011;66637;-29.628;-49.938;2023-07-31T05:54:01;5.57;;;3.90;;
77522;SDS011;66637;-29.628;-49.938;2023-07-31T05:56:33;6.75;;;3.72;;
77522;SDS011;66637;-29.628;-49.938;2023-07-31T05:59:03;6.55;;;3.65;;
77522;SDS011;66637;-29.628;-49.938;2023-07-31T06:01:34;5.38;;;3.90;;
77522;SDS011;66637;-29.628;-49.938;2023-07-31T06:04:06;6.70;;;3.75;;
77522;SDS011;66637;-29.628;-49.938;2023-07-31T06:06:37;5.55;;;3.67;;
77522;SDS011;66637;-29.628;-49.938;2023-07-31T06:09:09;5.35;;;4.07;;
77522;SDS011;66637;-29.628;-49.938;2023-07-31T06:11:41;6.53;;;3.70;;
77522;SDS011;66637;-29.628;-49.938;2023-07-31T06:14:13;7.68;;;4.47;;
77522;SDS011;66637;-29.628;-49.938;2023-07-31T06:16:45;8.18;;;4.50;;
77522;SDS011;66637;-29.628;-49.938;2023-07-31T06:19:16;6.50;;;4.35;;
77522;SDS011;66637;-29.628;-49.938;2023-07-31T06:21:47;8.60;;;4.95;;
77522;SDS011;66637;-29.628;-49.938;2023-07-31T06:24:17;7.68;;;4.85;;
77522;SDS011;66637;-29.628;-49.938;2023-07-31T06:26:50;8.60;;;6.07;;
77522;SDS011;66637;-29.628;-49.938;2023-07-31T06:29:20;9.00;;;5.65;;
77522;SDS011;66637;-29.628;-49.938;2023-07-31T06:31:51;10.65;;;6.30;;
77522;SDS011;66637;-29.628;-49.938;2023-07-31T06:34:22;9.45;;;6.30;;
77522;SDS011;66637;-29.628;-49.938;2023-07-31T06:36:53;10.40;;;6.68;;
77522;SDS011;66637;-29.628;-49.938;2023-07-31T06:39:23;10.68;;;6.40;;
77522;SDS011;66637;-29.628;-49.938;2023-07-31T06:41:53;10.23;;;6.90;;
77522;SDS011;66637;-29.628;-49.938;2023-07-31T06:44:25;11.23;;;7.15;;
77522;SDS011;66637;-29.628;-49.938;2023-07-31T06:46:56;10.95;;;7.78;;
77522;SDS011;66637;-29.628;-49.938;2023-07-31T06:49:27;13.60;;;8.40;;
77522;SDS011;66637;-29.628;-49.938;2023-07-31T06:51:57;11.45;;;8.00;;
77522;SDS011;66637;-29.628;-49.938;2023-07-31T06:54:28;10.95;;;8.20;;
77522;SDS011;66637;-29.628;-49.938;2023-07-31T06:56:59;10.20;;;7.38;;
77522;SDS011;66637;-29.628;-49.938;2023-07-31T06:59:29;9.98;;;7.50;;
77522;SDS011;66637;-29.628;-49.938;2023-07-31T07:02:00;11.23;;;8.30;;
77522;SDS011;66637;-29.628;-49.938;2023-07-31T07:04:33;12.25;;;8.07;;
77522;SDS011;66637;-29.628;-49.938;2023-07-31T07:07:05;14.02;;;8.05;;
77522;SDS011;66637;-29.628;-49.938;2023-07-31T07:09:37;21.10;;;10.52;;
77522;SDS011;66637;-29.628;-49.938;2023-07-31T07:12:09;20.75;;;10.45;;
77522;SDS011;66637;-29.628;-49.938;2023-07-31T07:14:40;22.20;;;11.43;;
77522;SDS011;66637;-29.628;-49.938;2023-07-31T07:17:11;20.20;;;10.48;;
77522;SDS011;66637;-29.628;-49.938;2023-07-31T07:19:42;24.00;;;11.10;;
77522;SDS011;66637;-29.628;-49.938;2023-07-31T07:22:13;20.58;;;11.45;;
77522;SDS011;66637;-29.628;-49.938;2023-07-31T07:24:44;18.80;;;10.82;;
77522;SDS011;66637;-29.628;-49.938;2023-07-31T07:27:14;17.58;;;10.07;;
77522;SDS011;66637;-29.628;-49.938;2023-07-31T07:29:45;41.70;;;12.90;;
77522;SDS011;66637;-29.628;-49.938;2023-07-31T07:32:16;69.70;;;16.45;;
77522;SDS011;66637;-29.628;-49.938;2023-07-31T07:34:47;59.22;;;15.55;;
77522;SDS011;66637;-29.628;-49.938;2023-07-31T07:37:18;50.05;;;15.57;;
77522;SDS011;66637;-29.628;-49.938;2023-07-31T07:39:52;36.65;;;12.73;;
77522;SDS011;66637;-29.628;-49.938;2023-07-31T07:42:22;35.10;;;12.73;;
77522;SDS011;66637;-29.628;-49.938;2023-07-31T07:44:53;36.83;;;13.77;;
77522;SDS011;66637;-29.628;-49.938;2023-07-31T07:47:27;45.67;;;13.60;;
77522;SDS011;66637;-29.628;-49.938;2023-07-31T07:49:58;50.45;;;15.80;;
77522;SDS011;66637;-29.628;-49.938;2023-07-31T07:52:29;66.68;;;16.63;;
77522;SDS011;66637;-29.628;-49.938;2023-07-31T07:55:00;49.05;;;14.32;;
77522;SDS011;66637;-29.628;-49.938;2023-07-31T07:57:30;79.20;;;17.15;;
77522;SDS011;66637;-29.628;-49.938;2023-07-31T08:00:01;58.10;;;16.33;;
77522;SDS011;66637;-29.628;-49.938;2023-07-31T08:02:43;56.05;;;15.98;;
77522;SDS011;66637;-29.628;-49.938;2023-07-31T08:05:13;56.35;;;16.50;;
77522;SDS011;66637;-29.628;-49.938;2023-07-31T08:07:45;63.13;;;15.98;;
77522;SDS011;66637;-29.628;-49.938;2023-07-31T08:10:15;57.70;;;16.80;;
77522;SDS011;66637;-29.628;-49.938;2023-07-31T08:12:47;53.13;;;16.33;;
77522;SDS011;66637;-29.628;-49.938;2023-07-31T08:15:18;44.13;;;14.93;;
77522;SDS011;66637;-29.628;-49.938;2023-07-31T08:17:48;40.08;;;14.45;;
77522;SDS011;66637;-29.628;-49.938;2023-07-31T08:20:19;53.13;;;15.18;;
77522;SDS011;66637;-29.628;-49.938;2023-07-31T08:22:51;38.05;;;14.57;;
77522;SDS011;66637;-29.628;-49.938;2023-07-31T08:25:23;39.05;;;14.75;;
77522;SDS011;66637;-29.628;-49.938;2023-07-31T08:27:53;41.05;;;14.40;;
77522;SDS011;66637;-29.628;-49.938;2023-07-31T08:30:24;51.33;;;15.93;;
77522;SDS011;66637;-29.628;-49.938;2023-07-31T08:32:55;32.80;;;12.98;;
77522;SDS011;66637;-29.628;-49.938;2023-07-31T08:35:26;38.70;;;14.13;;
77522;SDS011;66637;-29.628;-49.938;2023-07-31T08:37:59;33.35;;;13.50;;
77522;SDS011;66637;-29.628;-49.938;2023-07-31T08:40:31;28.70;;;13.77;;
77522;SDS011;66637;-29.628;-49.938;2023-07-31T08:43:01;28.23;;;13.05;;
77522;SDS011;66637;-29.628;-49.938;2023-07-31T08:45:32;27.02;;;13.25;;
77522;SDS011;66637;-29.628;-49.938;2023-07-31T08:48:03;53.47;;;16.50;;
77522;SDS011;66637;-29.628;-49.938;2023-07-31T08:50:34;35.22;;;13.85;;
77522;SDS011;66637;-29.628;-49.938;2023-07-31T08:53:05;40.25;;;14.02;;
77522;SDS011;66637;-29.628;-49.938;2023-07-31T08:55:38;27.70;;;12.63;;
77522;SDS011;66637;-29.628;-49.938;2023-07-31T08:58:10;31.23;;;12.95;;
77522;SDS011;66637;-29.628;-49.938;2023-07-31T09:00:43;25.08;;;13.30;;
77522;SDS011;66637;-29.628;-49.938;2023-07-31T09:03:21;24.55;;;12.15;;
77522;SDS011;66637;-29.628;-49.938;2023-07-31T09:05:56;29.02;;;12.85;;
77522;SDS011;66637;-29.628;-49.938;2023-07-31T09:08:30;26.38;;;12.30;;
77522;SDS011;66637;-29.628;-49.938;2023-07-31T09:11:04;32.45;;;13.05;;
77522;SDS011;66637;-29.628;-49.938;2023-07-31T09:13:35;38.08;;;14.05;;
77522;SDS011;66637;-29.628;-49.938;2023-07-31T09:16:09;41.85;;;13.82;;
77522;SDS011;66637;-29.628;-49.938;2023-07-31T09:18:53;32.53;;;13.95;;
77522;SDS011;66637;-29.628;-49.938;2023-07-31T09:21:25;34.70;;;13.23;;
77522;SDS011;66637;-29.628;-49.938;2023-07-31T09:23:57;36.50;;;12.77;;
77522;SDS011;66637;-29.628;-49.938;2023-07-31T09:26:31;42.45;;;13.18;;
77522;SDS011;66637;-29.628;-49.938;2023-07-31T09:29:04;41.80;;;12.27;;
77522;SDS011;66637;-29.628;-49.938;2023-07-31T09:31:41;26.70;;;12.70;;
77522;SDS011;66637;-29.628;-49.938;2023-07-31T09:34:13;37.65;;;13.63;;
77522;SDS011;66637;-29.628;-49.938;2023-07-31T09:36:44;31.52;;;12.68;;
77522;SDS011;66637;-29.628;-49.938;2023-07-31T09:39:17;36.60;;;12.85;;
77522;SDS011;66637;-29.628;-49.938;2023-07-31T09:41:55;37.75;;;13.30;;
77522;SDS011;66637;-29.628;-49.938;2023-07-31T09:44:41;39.17;;;13.40;;
77522;SDS011;66637;-29.628;-49.938;2023-07-31T09:47:22;38.85;;;12.40;;
77522;SDS011;66637;-29.628;-49.938;2023-07-31T09:49:54;31.40;;;13.35;;
77522;SDS011;66637;-29.628;-49.938;2023-07-31T09:52:29;33.75;;;12.98;;
77522;SDS011;66637;-29.628;-49.938;2023-07-31T09:55:00;32.70;;;13.27;;
77522;SDS011;66637;-29.628;-49.938;2023-07-31T09:57:31;33.42;;;13.15;;
77522;SDS011;66637;-29.628;-49.938;2023-07-31T10:00:02;35.95;;;13.55;;
77522;SDS011;66637;-29.628;-49.938;2023-07-31T10:02:38;35.38;;;13.75;;
77522;SDS011;66637;-29.628;-49.938;2023-07-31T10:05:09;33.22;;;12.45;;
77522;SDS011;66637;-29.628;-49.938;2023-07-31T10:07:43;32.13;;;13.27;;
77522;SDS011;66637;-29.628;-49.938;2023-07-31T10:10:20;27.23;;;12.27;;
77522;SDS011;66637;-29.628;-49.938;2023-07-31T10:12:53;26.15;;;12.68;;
77522;SDS011;66637;-29.628;-49.938;2023-07-31T10:15:26;26.85;;;10.85;;
77522;SDS011;66637;-29.628;-49.938;2023-07-31T10:17:58;26.50;;;11.80;;
77522;SDS011;66637;-29.628;-49.938;2023-07-31T10:20:30;24.70;;;12.00;;
77522;SDS011;66637;-29.628;-49.938;2023-07-31T10:23:02;25.00;;;11.68;;
77522;SDS011;66637;-29.628;-49.938;2023-07-31T10:25:33;24.30;;;11.32;;
77522;SDS011;66637;-29.628;-49.938;2023-07-31T10:28:05;23.73;;;11.68;;
77522;SDS011;66637;-29.628;-49.938;2023-07-31T10:30:36;22.90;;;11.75;;
77522;SDS011;66637;-29.628;-49.938;2023-07-31T10:33:09;20.02;;;10.77;;
77522;SDS011;66637;-29.628;-49.938;2023-07-31T10:35:40;21.30;;;11.02;;
77522;SDS011;66637;-29.628;-49.938;2023-07-31T10:38:11;24.52;;;12.52;;
77522;SDS011;66637;-29.628;-49.938;2023-07-31T10:40:42;23.17;;;11.88;;
77522;SDS011;66637;-29.628;-49.938;2023-07-31T10:43:26;20.25;;;11.75;;
77522;SDS011;66637;-29.628;-49.938;2023-07-31T10:45:56;19.65;;;11.00;;
77522;SDS011;66637;-29.628;-49.938;2023-07-31T10:48:30;21.05;;;11.57;;
77522;SDS011;66637;-29.628;-49.938;2023-07-31T10:51:07;14.73;;;9.48;;
77522;SDS011;66637;-29.628;-49.938;2023-07-31T10:53:40;16.83;;;8.93;;
77522;SDS011;66637;-29.628;-49.938;2023-07-31T10:56:10;15.38;;;9.88;;
77522;SDS011;66637;-29.628;-49.938;2023-07-31T10:58:44;16.00;;;9.68;;
77522;SDS011;66637;-29.628;-49.938;2023-07-31T11:01:17;15.38;;;9.60;;
77522;SDS011;66637;-29.628;-49.938;2023-07-31T11:03:49;14.65;;;9.57;;
77522;SDS011;66637;-29.628;-49.938;2023-07-31T11:06:29;15.10;;;9.30;;
77522;SDS011;66637;-29.628;-49.938;2023-07-31T11:08:59;14.43;;;9.68;;
77522;SDS011;66637;-29.628;-49.938;2023-07-31T11:11:31;16.98;;;9.70;;
77522;SDS011;66637;-29.628;-49.938;2023-07-31T11:14:05;16.77;;;9.25;;
77522;SDS011;66637;-29.628;-49.938;2023-07-31T11:16:36;15.57;;;9.10;;
77522;SDS011;66637;-29.628;-49.938;2023-07-31T11:19:08;18.27;;;10.00;;
77522;SDS011;66637;-29.628;-49.938;2023-07-31T11:21:38;16.30;;;10.23;;
77522;SDS011;66637;-29.628;-49.938;2023-07-31T11:24:12;19.80;;;10.23;;
77522;SDS011;66637;-29.628;-49.938;2023-07-31T11:26:51;22.95;;;10.48;;
77522;SDS011;66637;-29.628;-49.938;2023-07-31T11:29:22;19.95;;;11.23;;
77522;SDS011;66637;-29.628;-49.938;2023-07-31T11:31:59;19.63;;;10.70;;
77522;SDS011;66637;-29.628;-49.938;2023-07-31T11:34:29;25.50;;;11.93;;
77522;SDS011;66637;-29.628;-49.938;2023-07-31T11:36:59;22.98;;;10.63;;
77522;SDS011;66637;-29.628;-49.938;2023-07-31T11:39:30;19.25;;;10.20;;
77522;SDS011;66637;-29.628;-49.938;2023-07-31T11:42:01;20.10;;;10.18;;
77522;SDS011;66637;-29.628;-49.938;2023-07-31T11:44:40;22.13;;;9.80;;
77522;SDS011;66637;-29.628;-49.938;2023-07-31T11:47:17;16.33;;;9.07;;
77522;SDS011;66637;-29.628;-49.938;2023-07-31T11:49:48;16.80;;;8.60;;
77522;SDS011;66637;-29.628;-49.938;2023-07-31T11:52:19;20.95;;;8.77;;
77522;SDS011;66637;-29.628;-49.938;2023-07-31T11:54:50;39.58;;;11.90;;
77522;SDS011;66637;-29.628;-49.938;2023-07-31T11:57:21;72.03;;;14.02;;
77522;SDS011;66637;-29.628;-49.938;2023-07-31T11:59:52;75.72;;;15.90;;
77522;SDS011;66637;-29.628;-49.938;2023-07-31T12:02:26;103.35;;;17.92;;
77522;SDS011;66637;-29.628;-49.938;2023-07-31T12:04:58;114.45;;;18.17;;
77522;SDS011;66637;-29.628;-49.938;2023-07-31T12:07:42;73.78;;;15.68;;
77522;SDS011;66637;-29.628;-49.938;2023-07-31T12:13:10;36.58;;;11.85;;
77522;SDS011;66637;-29.628;-49.938;2023-07-31T12:15:45;60.65;;;12.57;;
77522;SDS011;66637;-29.628;-49.938;2023-07-31T12:18:19;54.10;;;12.35;;
77522;SDS011;66637;-29.628;-49.938;2023-07-31T12:20:58;39.95;;;11.50;;
77522;SDS011;66637;-29.628;-49.938;2023-07-31T12:23:30;43.45;;;11.15;;
77522;SDS011;66637;-29.628;-49.938;2023-07-31T12:26:10;34.92;;;9.82;;
77522;SDS011;66637;-29.628;-49.938;2023-07-31T12:28:49;37.88;;;10.70;;
77522;SDS011;66637;-29.628;-49.938;2023-07-31T12:31:21;49.08;;;12.20;;
77522;SDS011;66637;-29.628;-49.938;2023-07-31T12:33:52;48.92;;;12.38;;
77522;SDS011;66637;-29.628;-49.938;2023-07-31T12:36:28;42.00;;;11.00;;
77522;SDS011;66637;-29.628;-49.938;2023-07-31T12:39:02;46.75;;;11.40;;
77522;SDS011;66637;-29.628;-49.938;2023-07-31T12:41:33;36.60;;;9.75;;
77522;SDS011;66637;-29.628;-49.938;2023-07-31T12:44:04;25.60;;;9.75;;
77522;SDS011;66637;-29.628;-49.938;2023-07-31T12:46:35;32.45;;;9.43;;
77522;SDS011;66637;-29.628;-49.938;2023-07-31T12:49:08;33.45;;;9.63;;
77522;SDS011;66637;-29.628;-49.938;2023-07-31T12:51:38;36.08;;;9.75;;
77522;SDS011;66637;-29.628;-49.938;2023-07-31T12:54:10;30.20;;;9.18;;
77522;SDS011;66637;-29.628;-49.938;2023-07-31T12:56:42;30.75;;;8.82;;
77522;SDS011;66637;-29.628;-49.938;2023-07-31T12:59:14;26.67;;;8.73;;
77522;SDS011;66637;-29.628;-49.938;2023-07-31T13:01:45;24.15;;;8.90;;
77522;SDS011;66637;-29.628;-49.938;2023-07-31T13:04:16;23.08;;;8.77;;
77522;SDS011;66637;-29.628;-49.938;2023-07-31T13:06:47;15.90;;;7.60;;
77522;SDS011;66637;-29.628;-49.938;2023-07-31T13:09:17;40.83;;;9.77;;
77522;SDS011;66637;-29.628;-49.938;2023-07-31T13:11:47;20.42;;;8.25;;
77522;SDS011;66637;-29.628;-49.938;2023-07-31T13:14:18;23.27;;;9.35;;
77522;SDS011;66637;-29.628;-49.938;2023-07-31T13:16:48;19.08;;;8.45;;
77522;SDS011;66637;-29.628;-49.938;2023-07-31T13:19:20;22.33;;;8.15;;
77522;SDS011;66637;-29.628;-49.938;2023-07-31T13:21:55;18.75;;;8.63;;
77522;SDS011;66637;-29.628;-49.938;2023-07-31T13:24:27;19.65;;;7.95;;
77522;SDS011;66637;-29.628;-49.938;2023-07-31T13:26:57;29.40;;;8.90;;
77522;SDS011;66637;-29.628;-49.938;2023-07-31T13:29:27;27.70;;;8.32;;
77522;SDS011;66637;-29.628;-49.938;2023-07-31T13:32:00;28.42;;;8.18;;
77522;SDS011;66637;-29.628;-49.938;2023-07-31T13:34:32;19.65;;;8.32;;
77522;SDS011;66637;-29.628;-49.938;2023-07-31T13:37:03;17.13;;;7.32;;
77522;SDS011;66637;-29.628;-49.938;2023-07-31T13:39:36;39.28;;;9.18;;
77522;SDS011;66637;-29.628;-49.938;2023-07-31T13:42:07;29.33;;;8.68;;
77522;SDS011;66637;-29.628;-49.938;2023-07-31T13:44:41;30.75;;;9.27;;
77522;SDS011;66637;-29.628;-49.938;2023-07-31T13:47:11;31.15;;;8.90;;
77522;SDS011;66637;-29.628;-49.938;2023-07-31T13:49:43;29.33;;;8.90;;
77522;SDS011;66637;-29.628;-49.938;2023-07-31T13:52:14;21.92;;;8.65;;
77522;SDS011;66637;-29.628;-49.938;2023-07-31T13:54:44;31.55;;;8.70;;
77522;SDS011;66637;-29.628;-49.938;2023-07-31T13:57:15;19.83;;;7.35;;
77522;SDS011;66637;-29.628;-49.938;2023-07-31T13:59:46;28.80;;;8.25;;
77522;SDS011;66637;-29.628;-49.938;2023-07-31T14:02:16;22.58;;;6.90;;
77522;SDS011;66637;-29.628;-49.938;2023-07-31T14:04:47;28.77;;;7.80;;
77522;SDS011;66637;-29.628;-49.938;2023-07-31T14:07:18;22.27;;;7.10;;
77522;SDS011;66637;-29.628;-49.938;2023-07-31T14:09:48;23.60;;;6.70;;
77522;SDS011;66637;-29.628;-49.938;2023-07-31T14:12:18;28.42;;;6.28;;
77522;SDS011;66637;-29.628;-49.938;2023-07-31T14:15:09;27.23;;;6.97;;
77522;SDS011;66637;-29.628;-49.938;2023-07-31T14:17:41;24.63;;;7.20;;
77522;SDS011;66637;-29.628;-49.938;2023-07-31T14:20:12;20.05;;;6.03;;
77522;SDS011;66637;-29.628;-49.938;2023-07-31T14:22:43;28.67;;;7.93;;
77522;SDS011;66637;-29.628;-49.938;2023-07-31T14:25:14;28.15;;;7.13;;
77522;SDS011;66637;-29.628;-49.938;2023-07-31T14:27:44;25.92;;;7.03;;
77522;SDS011;66637;-29.628;-49.938;2023-07-31T14:30:15;20.77;;;6.78;;
77522;SDS011;66637;-29.628;-49.938;2023-07-31T14:32:47;22.45;;;7.75;;
77522;SDS011;66637;-29.628;-49.938;2023-07-31T14:35:18;26.52;;;8.27;;
77522;SDS011;66637;-29.628;-49.938;2023-07-31T14:37:48;17.55;;;4.82;;
77522;SDS011;66637;-29.628;-49.938;2023-07-31T14:40:19;14.30;;;4.57;;
77522;SDS011;66637;-29.628;-49.938;2023-07-31T14:42:50;20.23;;;4.47;;
77522;SDS011;66637;-29.628;-49.938;2023-07-31T14:45:20;26.40;;;4.93;;
77522;SDS011;66637;-29.628;-49.938;2023-07-31T14:47:51;27.17;;;6.28;;
77522;SDS011;66637;-29.628;-49.938;2023-07-31T14:50:21;13.23;;;4.10;;
77522;SDS011;66637;-29.628;-49.938;2023-07-31T14:52:52;19.25;;;4.75;;
77522;SDS011;66637;-29.628;-49.938;2023-07-31T14:55:22;10.05;;;4.13;;
77522;SDS011;66637;-29.628;-49.938;2023-07-31T14:57:53;20.27;;;4.93;;
77522;SDS011;66637;-29.628;-49.938;2023-07-31T15:00:23;28.80;;;6.28;;
77522;SDS011;66637;-29.628;-49.938;2023-07-31T15:02:56;18.80;;;5.65;;
77522;SDS011;66637;-29.628;-49.938;2023-07-31T15:05:26;18.10;;;5.45;;
77522;SDS011;66637;-29.628;-49.938;2023-07-31T15:07:57;19.63;;;5.03;;
77522;SDS011;66637;-29.628;-49.938;2023-07-31T15:10:30;10.38;;;4.20;;
77522;SDS011;66637;-29.628;-49.938;2023-07-31T15:13:02;15.30;;;4.57;;